sensor_id;sensor_type;location;lat;lon;timestamp;P1;durP1;ratioP1;P2;durP2;ratioP2
66667;SDS011;57205;51.438;-2.006;2023-07-30T00:00:38;3.53;;;1.27;;
66667;SDS011;57205;51.438;-2.006;2023-07-30T00:03:04;10.30;;;1.77;;
66667;SDS011;57205;51.438;-2.006;2023-07-30T00:05:29;9.15;;;1.75;;
66667;SDS011;57205;51.438;-2.006;2023-07-30T00:07:55;5.53;;;1.40;;
66667;SDS011;57205;51.438;-2.006;2023-07-30T00:10:20;9.90;;;2.30;;
66667;SDS011;57205;51.438;-2.006;2023-07-30T00:12:46;4.65;;;1.45;;
66667;SDS011;57205;51.438;-2.006;2023-07-30T00:15:11;7.07;;;1.75;;
66667;SDS011;57205;51.438;-2.006;2023-07-30T00:17:38;7.40;;;2.08;;
66667;SDS011;57205;51.438;-2.006;2023-07-30T00:20:05;7.15;;;1.60;;
66667;SDS011;57205;51.438;-2.006;2023-07-30T00:22:31;10.63;;;1.88;;
66667;SDS011;57205;51.438;-2.006;2023-07-30T00:24:57;5.25;;;1.45;;
66667;SDS011;57205;51.438;-2.006;2023-07-30T00:27:22;11.02;;;1.48;;
66667;SDS011;57205;51.438;-2.006;2023-07-30T00:29:48;4.35;;;1.58;;
66667;SDS011;57205;51.438;-2.006;2023-07-30T00:32:13;4.68;;;1.30;;
66667;SDS011;57205;51.438;-2.006;2023-07-30T00:34:41;6.80;;;1.77;;
66667;SDS011;57205;51.438;-2.006;2023-07-30T00:37:06;7.55;;;1.48;;
66667;SDS011;57205;51.438;-2.006;2023-07-30T00:39:31;7.38;;;1.52;;
66667;SDS011;57205;51.438;-2.006;2023-07-30T00:41:58;8.07;;;1.70;;
66667;SDS011;57205;51.438;-2.006;2023-07-30T00:44:23;8.55;;;2.20;;
66667;SDS011;57205;51.438;-2.006;2023-07-30T00:46:49;7.05;;;1.50;;
66667;SDS011;57205;51.438;-2.006;2023-07-30T00:49:15;5.75;;;1.55;;
66667;SDS011;57205;51.438;-2.006;2023-07-30T00:51:40;6.75;;;1.90;;
66667;SDS011;57205;51.438;-2.006;2023-07-30T00:54:07;5.18;;;1.50;;
66667;SDS011;57205;51.438;-2.006;2023-07-30T00:56:32;8.82;;;1.90;;
66667;SDS011;57205;51.438;-2.006;2023-07-30T00:58:59;6.65;;;1.45;;
66667;SDS011;57205;51.438;-2.006;2023-07-30T01:01:25;5.65;;;1.83;;
66667;SDS011;57205;51.438;-2.006;2023-07-30T01:03:50;7.88;;;1.60;;
66667;SDS011;57205;51.438;-2.006;2023-07-30T01:06:16;6.43;;;1.55;;
66667;SDS011;57205;51.438;-2.006;2023-07-30T01:08:41;8.63;;;1.85;;
66667;SDS011;57205;51.438;-2.006;2023-07-30T01:11:07;6.10;;;2.00;;
66667;SDS011;57205;51.438;-2.006;2023-07-30T01:13:34;6.97;;;2.88;;
66667;SDS011;57205;51.438;-2.006;2023-07-30T01:16:00;6.40;;;1.33;;
66667;SDS011;57205;51.438;-2.006;2023-07-30T01:18:26;7.85;;;1.70;;
66667;SDS011;57205;51.438;-2.006;2023-07-30T01:20:58;5.00;;;1.60;;
66667;SDS011;57205;51.438;-2.006;2023-07-30T01:23:24;8.30;;;1.73;;
66667;SDS011;57205;51.438;-2.006;2023-07-30T01:25:59;9.13;;;2.10;;
66667;SDS011;57205;51.438;-2.006;2023-07-30T01:28:29;9.98;;;1.85;;
66667;SDS011;57205;51.438;-2.006;2023-07-30T01:31:01;7.38;;;1.35;;
66667;SDS011;57205;51.438;-2.006;2023-07-30T01:33:28;10.20;;;2.13;;
66667;SDS011;57205;51.438;-2.006;2023-07-30T01:35:55;9.95;;;1.80;;
66667;SDS011;57205;51.438;-2.006;2023-07-30T01:38:21;10.10;;;2.08;;
66667;SDS011;57205;51.438;-2.006;2023-07-30T01:40:47;7.93;;;1.50;;
66667;SDS011;57205;51.438;-2.006;2023-07-30T01:43:13;6.72;;;2.20;;
66667;SDS011;57205;51.438;-2.006;2023-07-30T01:45:38;8.80;;;1.75;;
66667;SDS011;57205;51.438;-2.006;2023-07-30T01:48:05;4.50;;;1.90;;
66667;SDS011;57205;51.438;-2.006;2023-07-30T01:50:30;5.22;;;1.40;;
66667;SDS011;57205;51.438;-2.006;2023-07-30T01:52:56;7.40;;;1.77;;
66667;SDS011;57205;51.438;-2.006;2023-07-30T01:55:21;8.18;;;2.65;;
66667;SDS011;57205;51.438;-2.006;2023-07-30T01:57:46;8.82;;;1.90;;
66667;SDS011;57205;51.438;-2.006;2023-07-30T02:00:12;4.70;;;1.60;;
66667;SDS011;57205;51.438;-2.006;2023-07-30T02:02:37;5.82;;;1.38;;
66667;SDS011;57205;51.438;-2.006;2023-07-30T02:05:03;7.72;;;1.85;;
66667;SDS011;57205;51.438;-2.006;2023-07-30T02:07:28;10.38;;;1.80;;
66667;SDS011;57205;51.438;-2.006;2023-07-30T02:09:54;8.80;;;3.42;;
66667;SDS011;57205;51.438;-2.006;2023-07-30T02:12:19;8.05;;;1.83;;
66667;SDS011;57205;51.438;-2.006;2023-07-30T02:14:44;7.47;;;1.90;;
66667;SDS011;57205;51.438;-2.006;2023-07-30T02:17:10;6.75;;;2.08;;
66667;SDS011;57205;51.438;-2.006;2023-07-30T02:19:35;8.55;;;2.03;;
66667;SDS011;57205;51.438;-2.006;2023-07-30T02:22:01;9.38;;;1.60;;
66667;SDS011;57205;51.438;-2.006;2023-07-30T02:24:26;13.48;;;2.00;;
66667;SDS011;57205;51.438;-2.006;2023-07-30T02:26:51;6.25;;;1.70;;
66667;SDS011;57205;51.438;-2.006;2023-07-30T02:29:17;10.70;;;2.00;;
66667;SDS011;57205;51.438;-2.006;2023-07-30T02:31:42;8.80;;;1.80;;
66667;SDS011;57205;51.438;-2.006;2023-07-30T02:34:07;9.02;;;1.83;;
66667;SDS011;57205;51.438;-2.006;2023-07-30T02:36:33;7.07;;;2.47;;
66667;SDS011;57205;51.438;-2.006;2023-07-30T02:38:59;7.43;;;2.05;;
66667;SDS011;57205;51.438;-2.006;2023-07-30T02:41:24;9.80;;;2.30;;
66667;SDS011;57205;51.438;-2.006;2023-07-30T02:43:50;6.82;;;1.45;;
66667;SDS011;57205;51.438;-2.006;2023-07-30T02:46:15;7.63;;;1.88;;
66667;SDS011;57205;51.438;-2.006;2023-07-30T02:48:40;9.20;;;1.88;;
66667;SDS011;57205;51.438;-2.006;2023-07-30T02:51:06;12.13;;;2.55;;
66667;SDS011;57205;51.438;-2.006;2023-07-30T02:53:31;8.88;;;2.20;;
66667;SDS011;57205;51.438;-2.006;2023-07-30T02:55:57;9.18;;;2.15;;
66667;SDS011;57205;51.438;-2.006;2023-07-30T02:58:22;10.15;;;2.63;;
66667;SDS011;57205;51.438;-2.006;2023-07-30T03:00:47;9.18;;;1.63;;
66667;SDS011;57205;51.438;-2.006;2023-07-30T03:03:13;8.27;;;1.75;;
66667;SDS011;57205;51.438;-2.006;2023-07-30T03:05:41;6.68;;;1.73;;
66667;SDS011;57205;51.438;-2.006;2023-07-30T03:08:07;9.25;;;1.80;;
66667;SDS011;57205;51.438;-2.006;2023-07-30T03:10:32;9.18;;;2.50;;
66667;SDS011;57205;51.438;-2.006;2023-07-30T03:12:58;8.73;;;2.58;;
66667;SDS011;57205;51.438;-2.006;2023-07-30T03:15:23;9.70;;;2.28;;
66667;SDS011;57205;51.438;-2.006;2023-07-30T03:17:49;6.30;;;1.60;;
66667;SDS011;57205;51.438;-2.006;2023-07-30T03:20:14;8.93;;;2.00;;
66667;SDS011;57205;51.438;-2.006;2023-07-30T03:22:40;14.60;;;2.03;;
66667;SDS011;57205;51.438;-2.006;2023-07-30T03:25:05;7.30;;;2.22;;
66667;SDS011;57205;51.438;-2.006;2023-07-30T03:27:31;10.00;;;2.15;;
66667;SDS011;57205;51.438;-2.006;2023-07-30T03:29:57;12.93;;;2.45;;
66667;SDS011;57205;51.438;-2.006;2023-07-30T03:32:23;7.32;;;1.65;;
66667;SDS011;57205;51.438;-2.006;2023-07-30T03:34:48;12.15;;;2.10;;
66667;SDS011;57205;51.438;-2.006;2023-07-30T03:37:13;8.65;;;2.20;;
66667;SDS011;57205;51.438;-2.006;2023-07-30T03:39:39;8.80;;;2.10;;
66667;SDS011;57205;51.438;-2.006;2023-07-30T03:42:05;15.27;;;2.10;;
66667;SDS011;57205;51.438;-2.006;2023-07-30T03:44:30;11.70;;;2.15;;
66667;SDS011;57205;51.438;-2.006;2023-07-30T03:46:56;8.82;;;1.77;;
66667;SDS011;57205;51.438;-2.006;2023-07-30T03:49:21;8.95;;;1.83;;
66667;SDS011;57205;51.438;-2.006;2023-07-30T03:51:47;7.93;;;1.65;;
66667;SDS011;57205;51.438;-2.006;2023-07-30T03:54:12;7.60;;;2.42;;
66667;SDS011;57205;51.438;-2.006;2023-07-30T03:56:38;6.53;;;1.88;;
66667;SDS011;57205;51.438;-2.006;2023-07-30T03:59:03;9.13;;;1.70;;
66667;SDS011;57205;51.438;-2.006;2023-07-30T04:01:28;9.40;;;2.22;;
66667;SDS011;57205;51.438;-2.006;2023-07-30T04:03:55;8.18;;;1.92;;
66667;SDS011;57205;51.438;-2.006;2023-07-30T04:06:20;10.23;;;2.25;;
66667;SDS011;57205;51.438;-2.006;2023-07-30T04:08:46;7.40;;;2.38;;
66667;SDS011;57205;51.438;-2.006;2023-07-30T04:11:11;10.88;;;2.30;;
66667;SDS011;57205;51.438;-2.006;2023-07-30T04:13:37;10.20;;;2.55;;
66667;SDS011;57205;51.438;-2.006;2023-07-30T04:16:02;10.60;;;2.22;;
66667;SDS011;57205;51.438;-2.006;2023-07-30T04:18:28;8.90;;;2.35;;
66667;SDS011;57205;51.438;-2.006;2023-07-30T04:20:56;6.60;;;2.28;;
66667;SDS011;57205;51.438;-2.006;2023-07-30T04:23:21;6.88;;;2.38;;
66667;SDS011;57205;51.438;-2.006;2023-07-30T04:25:50;8.82;;;2.13;;
66667;SDS011;57205;51.438;-2.006;2023-07-30T04:28:16;13.10;;;2.30;;
66667;SDS011;57205;51.438;-2.006;2023-07-30T04:30:42;9.35;;;2.20;;
66667;SDS011;57205;51.438;-2.006;2023-07-30T04:33:07;10.25;;;2.05;;
66667;SDS011;57205;51.438;-2.006;2023-07-30T04:35:32;8.13;;;2.53;;
66667;SDS011;57205;51.438;-2.006;2023-07-30T04:37:58;10.65;;;3.00;;
66667;SDS011;57205;51.438;-2.006;2023-07-30T04:40:23;7.45;;;2.55;;
66667;SDS011;57205;51.438;-2.006;2023-07-30T04:42:49;11.75;;;2.60;;
66667;SDS011;57205;51.438;-2.006;2023-07-30T04:45:14;11.15;;;2.15;;
66667;SDS011;57205;51.438;-2.006;2023-07-30T04:47:41;9.60;;;1.95;;
66667;SDS011;57205;51.438;-2.006;2023-07-30T04:50:06;14.00;;;1.92;;
66667;SDS011;57205;51.438;-2.006;2023-07-30T04:52:32;10.07;;;2.50;;
66667;SDS011;57205;51.438;-2.006;2023-07-30T04:54:57;12.10;;;1.98;;
66667;SDS011;57205;51.438;-2.006;2023-07-30T04:57:23;8.27;;;2.15;;
66667;SDS011;57205;51.438;-2.006;2023-07-30T04:59:48;8.38;;;2.63;;
66667;SDS011;57205;51.438;-2.006;2023-07-30T05:02:13;8.55;;;1.88;;
66667;SDS011;57205;51.438;-2.006;2023-07-30T05:04:39;8.43;;;1.88;;
66667;SDS011;57205;51.438;-2.006;2023-07-30T05:07:04;10.77;;;1.92;;
66667;SDS011;57205;51.438;-2.006;2023-07-30T05:09:37;9.93;;;2.38;;
66667;SDS011;57205;51.438;-2.006;2023-07-30T05:12:02;8.57;;;1.80;;
66667;SDS011;57205;51.438;-2.006;2023-07-30T05:14:28;9.20;;;2.38;;
66667;SDS011;57205;51.438;-2.006;2023-07-30T05:16:53;9.95;;;2.55;;
66667;SDS011;57205;51.438;-2.006;2023-07-30T05:19:18;7.25;;;2.08;;
66667;SDS011;57205;51.438;-2.006;2023-07-30T05:21:44;12.45;;;2.28;;
66667;SDS011;57205;51.438;-2.006;2023-07-30T05:24:09;8.60;;;2.22;;
66667;SDS011;57205;51.438;-2.006;2023-07-30T05:26:35;9.02;;;2.08;;
66667;SDS011;57205;51.438;-2.006;2023-07-30T05:29:00;9.32;;;2.70;;
66667;SDS011;57205;51.438;-2.006;2023-07-30T05:31:26;8.27;;;2.30;;
66667;SDS011;57205;51.438;-2.006;2023-07-30T05:33:51;14.32;;;2.20;;
66667;SDS011;57205;51.438;-2.006;2023-07-30T05:36:16;8.07;;;2.15;;
66667;SDS011;57205;51.438;-2.006;2023-07-30T05:38:42;9.07;;;2.08;;
66667;SDS011;57205;51.438;-2.006;2023-07-30T05:41:07;8.77;;;2.05;;
66667;SDS011;57205;51.438;-2.006;2023-07-30T05:43:33;7.57;;;2.50;;
66667;SDS011;57205;51.438;-2.006;2023-07-30T05:45:58;10.02;;;1.90;;
66667;SDS011;57205;51.438;-2.006;2023-07-30T05:48:23;6.45;;;1.83;;
66667;SDS011;57205;51.438;-2.006;2023-07-30T05:50:49;6.15;;;1.42;;
66667;SDS011;57205;51.438;-2.006;2023-07-30T05:53:14;5.10;;;1.50;;
66667;SDS011;57205;51.438;-2.006;2023-07-30T05:55:40;9.23;;;1.50;;
66667;SDS011;57205;51.438;-2.006;2023-07-30T05:58:08;6.88;;;1.70;;
66667;SDS011;57205;51.438;-2.006;2023-07-30T06:00:33;4.80;;;1.75;;
66667;SDS011;57205;51.438;-2.006;2023-07-30T06:03:07;12.38;;;2.20;;
66667;SDS011;57205;51.438;-2.006;2023-07-30T06:05:38;7.35;;;1.63;;
66667;SDS011;57205;51.438;-2.006;2023-07-30T06:08:05;8.38;;;1.70;;
66667;SDS011;57205;51.438;-2.006;2023-07-30T06:10:30;3.80;;;1.27;;
66667;SDS011;57205;51.438;-2.006;2023-07-30T06:12:56;6.53;;;1.73;;
66667;SDS011;57205;51.438;-2.006;2023-07-30T06:15:21;9.70;;;1.67;;
66667;SDS011;57205;51.438;-2.006;2023-07-30T06:17:47;8.25;;;1.80;;
66667;SDS011;57205;51.438;-2.006;2023-07-30T06:20:12;9.85;;;1.90;;
66667;SDS011;57205;51.438;-2.006;2023-07-30T06:22:38;5.38;;;1.60;;
66667;SDS011;57205;51.438;-2.006;2023-07-30T06:25:03;6.43;;;1.70;;
66667;SDS011;57205;51.438;-2.006;2023-07-30T06:27:29;4.85;;;1.65;;
66667;SDS011;57205;51.438;-2.006;2023-07-30T06:29:54;5.32;;;1.60;;
66667;SDS011;57205;51.438;-2.006;2023-07-30T06:32:20;8.07;;;1.58;;
66667;SDS011;57205;51.438;-2.006;2023-07-30T06:34:46;4.38;;;1.50;;
66667;SDS011;57205;51.438;-2.006;2023-07-30T06:37:11;8.63;;;2.00;;
66667;SDS011;57205;51.438;-2.006;2023-07-30T06:39:36;5.90;;;1.77;;
66667;SDS011;57205;51.438;-2.006;2023-07-30T06:42:02;4.95;;;1.90;;
66667;SDS011;57205;51.438;-2.006;2023-07-30T06:44:27;6.15;;;1.30;;
66667;SDS011;57205;51.438;-2.006;2023-07-30T06:46:53;7.85;;;1.90;;
66667;SDS011;57205;51.438;-2.006;2023-07-30T06:49:18;7.60;;;2.83;;
66667;SDS011;57205;51.438;-2.006;2023-07-30T06:51:44;6.78;;;1.88;;
66667;SDS011;57205;51.438;-2.006;2023-07-30T06:54:09;8.27;;;2.20;;
66667;SDS011;57205;51.438;-2.006;2023-07-30T06:56:34;5.80;;;1.80;;
66667;SDS011;57205;51.438;-2.006;2023-07-30T06:59:01;4.88;;;2.22;;
66667;SDS011;57205;51.438;-2.006;2023-07-30T07:01:27;7.55;;;1.98;;
66667;SDS011;57205;51.438;-2.006;2023-07-30T07:03:52;5.82;;;1.75;;
66667;SDS011;57205;51.438;-2.006;2023-07-30T07:06:17;7.22;;;1.88;;
66667;SDS011;57205;51.438;-2.006;2023-07-30T07:08:43;6.82;;;2.25;;
66667;SDS011;57205;51.438;-2.006;2023-07-30T07:11:08;6.32;;;1.95;;
66667;SDS011;57205;51.438;-2.006;2023-07-30T07:13:34;5.90;;;1.83;;
66667;SDS011;57205;51.438;-2.006;2023-07-30T07:16:00;5.60;;;1.83;;
66667;SDS011;57205;51.438;-2.006;2023-07-30T07:18:25;6.22;;;2.33;;
66667;SDS011;57205;51.438;-2.006;2023-07-30T07:20:51;6.85;;;1.52;;
66667;SDS011;57205;51.438;-2.006;2023-07-30T07:23:16;6.65;;;1.80;;
66667;SDS011;57205;51.438;-2.006;2023-07-30T07:25:43;5.05;;;2.05;;
66667;SDS011;57205;51.438;-2.006;2023-07-30T07:28:09;7.03;;;2.03;;
66667;SDS011;57205;51.438;-2.006;2023-07-30T07:30:35;8.15;;;2.20;;
66667;SDS011;57205;51.438;-2.006;2023-07-30T07:33:01;5.90;;;1.98;;
66667;SDS011;57205;51.438;-2.006;2023-07-30T07:35:27;10.35;;;1.58;;
66667;SDS011;57205;51.438;-2.006;2023-07-30T07:37:52;6.25;;;1.75;;
66667;SDS011;57205;51.438;-2.006;2023-07-30T07:40:18;6.15;;;1.77;;
66667;SDS011;57205;51.438;-2.006;2023-07-30T07:42:44;7.22;;;1.70;;
66667;SDS011;57205;51.438;-2.006;2023-07-30T07:45:09;9.10;;;2.10;;
66667;SDS011;57205;51.438;-2.006;2023-07-30T07:47:35;9.68;;;2.83;;
66667;SDS011;57205;51.438;-2.006;2023-07-30T07:50:00;6.57;;;1.70;;
66667;SDS011;57205;51.438;-2.006;2023-07-30T07:52:25;6.45;;;1.88;;
66667;SDS011;57205;51.438;-2.006;2023-07-30T07:54:51;7.35;;;2.00;;
66667;SDS011;57205;51.438;-2.006;2023-07-30T07:57:16;7.55;;;2.15;;
66667;SDS011;57205;51.438;-2.006;2023-07-30T07:59:42;5.93;;;1.80;;
66667;SDS011;57205;51.438;-2.006;2023-07-30T08:02:10;7.50;;;2.22;;
66667;SDS011;57205;51.438;-2.006;2023-07-30T08:04:36;7.90;;;2.40;;
66667;SDS011;57205;51.438;-2.006;2023-07-30T08:07:01;7.88;;;2.10;;
66667;SDS011;57205;51.438;-2.006;2023-07-30T08:09:28;5.85;;;1.90;;
66667;SDS011;57205;51.438;-2.006;2023-07-30T08:11:54;6.63;;;1.63;;
66667;SDS011;57205;51.438;-2.006;2023-07-30T08:14:20;6.13;;;2.13;;
66667;SDS011;57205;51.438;-2.006;2023-07-30T08:16:46;8.85;;;2.03;;
66667;SDS011;57205;51.438;-2.006;2023-07-30T08:19:11;8.57;;;1.88;;
66667;SDS011;57205;51.438;-2.006;2023-07-30T08:21:37;6.53;;;2.05;;
66667;SDS011;57205;51.438;-2.006;2023-07-30T08:24:08;9.73;;;3.50;;
66667;SDS011;57205;51.438;-2.006;2023-07-30T08:26:34;9.18;;;1.95;;
66667;SDS011;57205;51.438;-2.006;2023-07-30T08:28:59;5.60;;;2.22;;
66667;SDS011;57205;51.438;-2.006;2023-07-30T08:31:24;6.25;;;2.28;;
66667;SDS011;57205;51.438;-2.006;2023-07-30T08:33:50;8.45;;;2.10;;
66667;SDS011;57205;51.438;-2.006;2023-07-30T08:36:15;6.25;;;2.30;;
66667;SDS011;57205;51.438;-2.006;2023-07-30T08:38:41;7.47;;;2.63;;
66667;SDS011;57205;51.438;-2.006;2023-07-30T08:41:06;6.20;;;2.20;;
66667;SDS011;57205;51.438;-2.006;2023-07-30T08:43:32;11.07;;;5.13;;
66667;SDS011;57205;51.438;-2.006;2023-07-30T08:45:59;8.32;;;2.08;;
66667;SDS011;57205;51.438;-2.006;2023-07-30T08:48:25;6.45;;;2.00;;
66667;SDS011;57205;51.438;-2.006;2023-07-30T08:50:51;5.53;;;1.98;;
66667;SDS011;57205;51.438;-2.006;2023-07-30T08:53:17;5.57;;;1.92;;
66667;SDS011;57205;51.438;-2.006;2023-07-30T08:55:43;4.60;;;1.80;;
66667;SDS011;57205;51.438;-2.006;2023-07-30T08:58:09;6.03;;;1.98;;
66667;SDS011;57205;51.438;-2.006;2023-07-30T09:00:36;6.07;;;2.38;;
66667;SDS011;57205;51.438;-2.006;2023-07-30T09:03:05;5.70;;;1.90;;
66667;SDS011;57205;51.438;-2.006;2023-07-30T09:05:33;5.03;;;1.73;;
66667;SDS011;57205;51.438;-2.006;2023-07-30T09:07:58;5.35;;;1.60;;
66667;SDS011;57205;51.438;-2.006;2023-07-30T09:10:25;5.18;;;1.48;;
66667;SDS011;57205;51.438;-2.006;2023-07-30T09:12:54;4.97;;;1.77;;
66667;SDS011;57205;51.438;-2.006;2023-07-30T09:15:30;5.35;;;2.08;;
66667;SDS011;57205;51.438;-2.006;2023-07-30T09:17:59;5.07;;;1.50;;
66667;SDS011;57205;51.438;-2.006;2023-07-30T09:20:26;4.20;;;1.35;;
66667;SDS011;57205;51.438;-2.006;2023-07-30T09:22:52;5.65;;;1.70;;
66667;SDS011;57205;51.438;-2.006;2023-07-30T09:25:18;5.32;;;2.13;;
66667;SDS011;57205;51.438;-2.006;2023-07-30T09:27:47;4.13;;;1.70;;
66667;SDS011;57205;51.438;-2.006;2023-07-30T09:30:14;4.18;;;1.15;;
66667;SDS011;57205;51.438;-2.006;2023-07-30T09:32:50;6.65;;;1.30;;
66667;SDS011;57205;51.438;-2.006;2023-07-30T09:35:22;4.93;;;1.55;;
66667;SDS011;57205;51.438;-2.006;2023-07-30T09:37:59;3.97;;;1.55;;
66667;SDS011;57205;51.438;-2.006;2023-07-30T09:40:36;3.95;;;1.10;;
66667;SDS011;57205;51.438;-2.006;2023-07-30T09:43:04;2.20;;;0.90;;
66667;SDS011;57205;51.438;-2.006;2023-07-30T09:45:34;3.63;;;1.20;;
66667;SDS011;57205;51.438;-2.006;2023-07-30T09:48:02;2.97;;;1.40;;
66667;SDS011;57205;51.438;-2.006;2023-07-30T09:50:30;3.17;;;1.23;;
66667;SDS011;57205;51.438;-2.006;2023-07-30T09:52:57;4.00;;;1.13;;
66667;SDS011;57205;51.438;-2.006;2023-07-30T09:55:25;2.42;;;0.90;;
66667;SDS011;57205;51.438;-2.006;2023-07-30T09:57:51;1.73;;;0.75;;
66667;SDS011;57205;51.438;-2.006;2023-07-30T10:00:17;5.57;;;1.30;;
66667;SDS011;57205;51.438;-2.006;2023-07-30T10:02:45;1.42;;;0.70;;
66667;SDS011;57205;51.438;-2.006;2023-07-30T10:05:14;2.25;;;1.02;;
66667;SDS011;57205;51.438;-2.006;2023-07-30T10:07:41;2.55;;;1.05;;
66667;SDS011;57205;51.438;-2.006;2023-07-30T10:10:13;4.93;;;1.55;;
66667;SDS011;57205;51.438;-2.006;2023-07-30T10:12:38;3.15;;;0.80;;
66667;SDS011;57205;51.438;-2.006;2023-07-30T10:15:06;1.70;;;0.73;;
66667;SDS011;57205;51.438;-2.006;2023-07-30T10:17:32;2.40;;;0.85;;
66667;SDS011;57205;51.438;-2.006;2023-07-30T10:19:58;2.53;;;0.80;;
66667;SDS011;57205;51.438;-2.006;2023-07-30T10:22:45;4.18;;;0.80;;
66667;SDS011;57205;51.438;-2.006;2023-07-30T10:25:12;2.42;;;1.23;;
66667;SDS011;57205;51.438;-2.006;2023-07-30T10:27:39;2.97;;;1.10;;
66667;SDS011;57205;51.438;-2.006;2023-07-30T10:30:15;3.65;;;0.90;;
66667;SDS011;57205;51.438;-2.006;2023-07-30T10:32:57;2.13;;;1.08;;
66667;SDS011;57205;51.438;-2.006;2023-07-30T10:35:40;5.85;;;1.33;;
66667;SDS011;57205;51.438;-2.006;2023-07-30T10:40:59;3.35;;;1.17;;
66667;SDS011;57205;51.438;-2.006;2023-07-30T10:43:39;2.70;;;1.17;;
66667;SDS011;57205;51.438;-2.006;2023-07-30T10:46:06;2.60;;;1.13;;
66667;SDS011;57205;51.438;-2.006;2023-07-30T10:48:33;4.80;;;1.00;;
66667;SDS011;57205;51.438;-2.006;2023-07-30T10:51:06;4.00;;;1.35;;
66667;SDS011;57205;51.438;-2.006;2023-07-30T10:53:33;4.45;;;1.40;;
66667;SDS011;57205;51.438;-2.006;2023-07-30T10:56:01;2.20;;;1.00;;
66667;SDS011;57205;51.438;-2.006;2023-07-30T10:58:29;4.22;;;1.20;;
66667;SDS011;57205;51.438;-2.006;2023-07-30T11:00:56;4.00;;;1.23;;
66667;SDS011;57205;51.438;-2.006;2023-07-30T11:03:24;4.03;;;1.30;;
66667;SDS011;57205;51.438;-2.006;2023-07-30T11:05:51;3.80;;;1.35;;
66667;SDS011;57205;51.438;-2.006;2023-07-30T11:08:17;4.40;;;1.50;;
66667;SDS011;57205;51.438;-2.006;2023-07-30T11:10:47;5.57;;;1.55;;
66667;SDS011;57205;51.438;-2.006;2023-07-30T11:13:13;3.30;;;1.17;;
66667;SDS011;57205;51.438;-2.006;2023-07-30T11:15:43;4.65;;;1.33;;
66667;SDS011;57205;51.438;-2.006;2023-07-30T11:18:11;4.38;;;2.08;;
66667;SDS011;57205;51.438;-2.006;2023-07-30T11:20:37;4.05;;;1.00;;
66667;SDS011;57205;51.438;-2.006;2023-07-30T11:23:16;2.75;;;1.30;;
66667;SDS011;57205;51.438;-2.006;2023-07-30T11:25:50;2.38;;;1.00;;
66667;SDS011;57205;51.438;-2.006;2023-07-30T11:28:29;3.40;;;1.08;;
66667;SDS011;57205;51.438;-2.006;2023-07-30T11:30:57;3.88;;;1.20;;
66667;SDS011;57205;51.438;-2.006;2023-07-30T11:33:25;4.97;;;1.30;;
66667;SDS011;57205;51.438;-2.006;2023-07-30T11:35:51;4.20;;;1.35;;
66667;SDS011;57205;51.438;-2.006;2023-07-30T11:38:17;2.05;;;1.00;;
66667;SDS011;57205;51.438;-2.006;2023-07-30T11:40:45;3.78;;;1.13;;
66667;SDS011;57205;51.438;-2.006;2023-07-30T11:43:11;4.50;;;1.17;;
66667;SDS011;57205;51.438;-2.006;2023-07-30T11:45:37;3.40;;;1.23;;
66667;SDS011;57205;51.438;-2.006;2023-07-30T11:48:06;3.22;;;1.13;;
66667;SDS011;57205;51.438;-2.006;2023-07-30T11:50:46;2.45;;;1.02;;
66667;SDS011;57205;51.438;-2.006;2023-07-30T11:53:14;2.38;;;0.90;;
66667;SDS011;57205;51.438;-2.006;2023-07-30T11:55:40;3.25;;;1.17;;
66667;SDS011;57205;51.438;-2.006;2023-07-30T11:58:07;2.03;;;1.02;;
66667;SDS011;57205;51.438;-2.006;2023-07-30T12:00:34;2.25;;;0.90;;
66667;SDS011;57205;51.438;-2.006;2023-07-30T12:03:04;2.95;;;0.98;;
66667;SDS011;57205;51.438;-2.006;2023-07-30T12:05:36;1.98;;;0.88;;
66667;SDS011;57205;51.438;-2.006;2023-07-30T12:08:02;3.42;;;1.10;;
66667;SDS011;57205;51.438;-2.006;2023-07-30T12:10:44;1.67;;;0.80;;
66667;SDS011;57205;51.438;-2.006;2023-07-30T12:13:12;1.75;;;0.70;;
66667;SDS011;57205;51.438;-2.006;2023-07-30T12:15:51;1.98;;;0.60;;
66667;SDS011;57205;51.438;-2.006;2023-07-30T12:18:20;3.10;;;0.95;;
66667;SDS011;57205;51.438;-2.006;2023-07-30T12:20:47;1.75;;;0.70;;
66667;SDS011;57205;51.438;-2.006;2023-07-30T12:23:16;2.67;;;1.00;;
66667;SDS011;57205;51.438;-2.006;2023-07-30T12:25:42;1.77;;;0.75;;
66667;SDS011;57205;51.438;-2.006;2023-07-30T12:28:07;2.08;;;0.98;;
66667;SDS011;57205;51.438;-2.006;2023-07-30T12:30:33;0.57;;;0.43;;
66667;SDS011;57205;51.438;-2.006;2023-07-30T12:33:00;1.50;;;0.80;;
66667;SDS011;57205;51.438;-2.006;2023-07-30T12:35:25;1.67;;;0.80;;
66667;SDS011;57205;51.438;-2.006;2023-07-30T12:37:51;1.83;;;0.68;;
66667;SDS011;57205;51.438;-2.006;2023-07-30T12:40:16;2.10;;;0.80;;
66667;SDS011;57205;51.438;-2.006;2023-07-30T12:42:42;2.08;;;0.60;;
66667;SDS011;57205;51.438;-2.006;2023-07-30T12:45:08;2.25;;;0.82;;
66667;SDS011;57205;51.438;-2.006;2023-07-30T12:47:33;1.63;;;1.00;;
66667;SDS011;57205;51.438;-2.006;2023-07-30T12:50:02;1.80;;;0.57;;
66667;SDS011;57205;51.438;-2.006;2023-07-30T12:52:29;1.75;;;0.45;;
66667;SDS011;57205;51.438;-2.006;2023-07-30T12:54:54;1.13;;;0.55;;
66667;SDS011;57205;51.438;-2.006;2023-07-30T12:57:21;0.93;;;0.40;;
66667;SDS011;57205;51.438;-2.006;2023-07-30T12:59:49;0.38;;;0.17;;
66667;SDS011;57205;51.438;-2.006;2023-07-30T13:02:14;0.93;;;0.30;;
66667;SDS011;57205;51.438;-2.006;2023-07-30T13:04:39;0.88;;;0.60;;
66667;SDS011;57205;51.438;-2.006;2023-07-30T13:07:05;0.77;;;0.40;;
66667;SDS011;57205;51.438;-2.006;2023-07-30T13:09:30;0.40;;;0.40;;
66667;SDS011;57205;51.438;-2.006;2023-07-30T13:11:56;1.50;;;0.50;;
66667;SDS011;57205;51.438;-2.006;2023-07-30T13:14:22;2.20;;;0.73;;
66667;SDS011;57205;51.438;-2.006;2023-07-30T13:16:47;0.85;;;0.43;;
66667;SDS011;57205;51.438;-2.006;2023-07-30T13:19:12;3.83;;;0.63;;
66667;SDS011;57205;51.438;-2.006;2023-07-30T13:21:38;1.67;;;0.80;;
66667;SDS011;57205;51.438;-2.006;2023-07-30T13:24:03;2.00;;;0.77;;
66667;SDS011;57205;51.438;-2.006;2023-07-30T13:26:29;2.45;;;0.77;;
66667;SDS011;57205;51.438;-2.006;2023-07-30T13:28:54;1.92;;;0.70;;
66667;SDS011;57205;51.438;-2.006;2023-07-30T13:31:20;0.85;;;0.40;;
66667;SDS011;57205;51.438;-2.006;2023-07-30T13:33:47;3.03;;;0.85;;
66667;SDS011;57205;51.438;-2.006;2023-07-30T13:36:13;2.15;;;0.80;;
66667;SDS011;57205;51.438;-2.006;2023-07-30T13:38:39;1.95;;;0.85;;
66667;SDS011;57205;51.438;-2.006;2023-07-30T13:41:05;2.65;;;1.02;;
66667;SDS011;57205;51.438;-2.006;2023-07-30T13:43:33;5.45;;;1.20;;
66667;SDS011;57205;51.438;-2.006;2023-07-30T13:45:58;2.33;;;0.90;;
66667;SDS011;57205;51.438;-2.006;2023-07-30T13:48:24;2.15;;;1.00;;
66667;SDS011;57205;51.438;-2.006;2023-07-30T13:50:50;2.30;;;1.00;;
66667;SDS011;57205;51.438;-2.006;2023-07-30T13:53:16;2.95;;;1.17;;
66667;SDS011;57205;51.438;-2.006;2023-07-30T13:55:42;2.30;;;1.02;;
66667;SDS011;57205;51.438;-2.006;2023-07-30T13:58:08;3.92;;;0.95;;
66667;SDS011;57205;51.438;-2.006;2023-07-30T14:00:33;3.30;;;1.25;;
66667;SDS011;57205;51.438;-2.006;2023-07-30T14:02:59;4.88;;;1.40;;
66667;SDS011;57205;51.438;-2.006;2023-07-30T14:05:26;3.38;;;1.20;;
66667;SDS011;57205;51.438;-2.006;2023-07-30T14:07:58;2.60;;;1.40;;
66667;SDS011;57205;51.438;-2.006;2023-07-30T14:10:25;5.53;;;1.75;;
66667;SDS011;57205;51.438;-2.006;2023-07-30T14:12:52;4.10;;;1.58;;
66667;SDS011;57205;51.438;-2.006;2023-07-30T14:15:17;4.38;;;1.17;;
66667;SDS011;57205;51.438;-2.006;2023-07-30T14:17:43;2.20;;;1.05;;
66667;SDS011;57205;51.438;-2.006;2023-07-30T14:20:08;3.13;;;1.23;;
66667;SDS011;57205;51.438;-2.006;2023-07-30T14:22:34;4.63;;;1.45;;
66667;SDS011;57205;51.438;-2.006;2023-07-30T14:25:01;3.42;;;1.40;;
66667;SDS011;57205;51.438;-2.006;2023-07-30T14:27:31;2.75;;;1.38;;
66667;SDS011;57205;51.438;-2.006;2023-07-30T14:29:56;2.90;;;1.45;;
66667;SDS011;57205;51.438;-2.006;2023-07-30T14:32:23;5.97;;;1.45;;